Archival Weather

Chicago O'Hare International

Chicago, Illinois (KORD)

Report from: Saturday, August 6, 2022 10:51 AM CDT
Current time: Friday, August 19, 2022 12:44 AM CDT

Current weather
Weather history
Weather forecast

Temperature31.1°C (88.0°F)
Heat index34.4°C (94.0°F)
Dew point21.7°C (71.1°F)
Winds 9 kts (4.6 m/s, 10.4 mph) Southwest (220°)
Visibility10 mi. (16.1 km)
Clouds Scattered clouds 3,000 ft. (914 m)
Scattered clouds 25,000 ft. (7,620 m)
Altimeter30.08 in.Hg (1019 mB)
Relative humidity57 %
Density altitude2,011 ft. (613 m)
Sea-level pressure101.8 kPa (1018 mB, 30.06 in.Hg)
Remarks Automated weather observing station with precipitation discriminator
Flight conditions Visual Meteorological Conditions
Raw dataKORD 061551Z 22009KT 10SM SCT030 SCT250 31/22 A3008 RMK AO2 SLP181 T03110217
An unhandled exception has occurred. See browser dev tools for details. Reload 🗙